New Germany, Minnesota
Current Conditions -  °F | °C
As of 4:54 AM on Friday 31 Oct 2014 (Local Time) from KGYL Reporting Station
Clear Clear  
Wind Chill: 20°   Ceiling: Unl
Heat Index: 28°   Visibility: 10mi
Dew Point: 19°   Wind: 7mph
Humidity: 71%   Direction: 330°NNW
Pressure: 30.49"   Gusts: NA
Location:  44.88°N, 93.97°W
Report Text: KGYL 310954Z AUTO 33006KT 10SM CLR M02/M07 A3049 RMK AO2 T10241070
Loading
Personal Weather Stations






























Interactive Weather Map
Tropical Storm Tracking
New forecast layout! Learn more

10-Day Weather Forecast

Advertisements
Track Severe Weather on mobile